Aviation Digital Data Service (ADDS)

Output produced by METARs form (1710 UTC 23 July 2018)
found at http://aviationweather.gov/adds/metars/
 
KHKS 231653Z VRB05KT 10SM FEW032 SCT045 31/23 A2988 RMK AO2 SLP109 T03060228